Time;durP1;ratioP1;P1;durP2;ratioP2;P2;SDS_P1;SDS_P2;PMS_P1;PMS_P2;Temp;Humidity;BMP_temperature;BMP_pressure;BME280_temperature;BME280_humidity;BME280_pressure;Samples;Min_cycle;Max_cycle;Signal;HPM_P1;HPM_P2
2021/08/17 00:04:56;;;;;;;1.20;0.52;;;;;;;11.91;100.00;99953.84;5036838;28;20079;-87
2021/08/17 00:07:31;;;;;;;1.80;0.50;;;;;;;11.94;100.00;99954.38;5052870;28;20049;-88
2021/08/17 00:13:36;;;;;;;1.80;0.68;;;;;;;12.11;100.00;99960.03;5046220;28;20057;-87
2021/08/17 00:16:09;;;;;;;1.52;0.68;;;;;;;12.08;100.00;99949.69;5043428;28;20045;-86
2021/08/17 00:18:43;;;;;;;3.83;1.00;;;;;;;12.06;100.00;99941.84;5053502;28;20599;-88
2021/08/17 00:21:13;;;;;;;1.58;0.50;;;;;;;12.19;100.00;99955.72;5052380;28;20055;-88
2021/08/17 00:23:48;;;;;;;2.00;0.60;;;;;;;12.18;100.00;99946.75;5053449;28;20060;-87
2021/08/17 00:26:21;;;;;;;1.92;0.60;;;;;;;12.18;100.00;99954.94;5038460;28;20049;-86
2021/08/17 00:28:58;;;;;;;2.00;0.68;;;;;;;12.21;100.00;99951.59;5039333;28;20589;-87
2021/08/17 00:31:27;;;;;;;1.08;0.60;;;;;;;12.27;100.00;99946.81;5045948;28;20061;-88
2021/08/17 00:34:04;;;;;;;2.08;0.60;;;;;;;12.37;100.00;99945.75;5045976;28;20048;-87
2021/08/17 00:36:38;;;;;;;3.72;0.68;;;;;;;12.32;100.00;99954.88;5048948;28;20398;-85
2021/08/17 00:39:07;;;;;;;0.95;0.43;;;;;;;12.31;100.00;99944.28;5033510;28;20494;-87
2021/08/17 00:41:38;;;;;;;1.48;0.63;;;;;;;12.42;100.00;99951.91;5038136;28;20049;-87
2021/08/17 00:45:07;;;;;;;1.38;0.50;;;;;;;12.41;100.00;99954.94;5053461;28;20632;-88
2021/08/17 00:47:41;;;;;;;1.27;0.55;;;;;;;12.40;100.00;99961.50;5032444;28;20049;-88
2021/08/17 00:50:14;;;;;;;0.63;0.50;;;;;;;12.41;100.00;99968.59;5045283;28;20610;-88
2021/08/17 00:53:13;;;;;;;1.33;0.50;;;;;;;12.37;100.00;99971.16;5036172;28;20060;-87
2021/08/17 00:55:50;;;;;;;1.17;0.52;;;;;;;12.35;100.00;99975.28;5048100;28;20061;-86
2021/08/17 00:58:19;;;;;;;2.10;0.68;;;;;;;12.36;100.00;99988.63;5052699;28;20041;-86
2021/08/17 01:00:47;;;;;;;1.23;0.50;;;;;;;12.32;100.00;99978.63;5051553;28;20049;-87
2021/08/17 01:03:23;;;;;;;0.85;0.40;;;;;;;12.29;100.00;99992.88;5032977;28;20049;-87
2021/08/17 01:05:57;;;;;;;1.67;0.60;;;;;;;12.23;100.00;99994.91;5046112;28;20049;-87
2021/08/17 01:08:30;;;;;;;2.92;0.50;;;;;;;12.25;100.00;100006.34;5048281;28;20041;-89
2021/08/17 01:11:06;;;;;;;1.92;0.60;;;;;;;12.28;100.00;100003.00;5051344;28;20524;-87
2021/08/17 01:14:33;;;;;;;1.38;0.45;;;;;;;12.29;100.00;100017.44;5048341;28;20060;-87
2021/08/17 01:17:06;;;;;;;0.93;0.40;;;;;;;12.31;100.00;100013.28;5050612;28;20037;-88
2021/08/17 01:19:39;;;;;;;1.13;0.50;;;;;;;12.32;100.00;100019.53;5040819;28;20056;-88
2021/08/17 01:22:18;;;;;;;3.13;0.70;;;;;;;12.35;100.00;100027.94;5047623;28;20064;-87
2021/08/17 01:24:51;;;;;;;1.13;0.40;;;;;;;12.39;100.00;100036.31;5048195;28;20128;-88
2021/08/17 01:27:26;;;;;;;1.02;0.30;;;;;;;12.34;100.00;100030.97;5038200;28;20053;-89
2021/08/17 01:29:59;;;;;;;0.80;0.47;;;;;;;12.24;100.00;100037.47;5049102;28;20049;-88
2021/08/17 01:33:10;;;;;;;1.15;0.40;;;;;;;12.31;100.00;100039.78;5045761;28;20050;-87
2021/08/17 01:35:43;;;;;;;0.57;0.38;;;;;;;12.37;100.00;100044.81;5050642;28;20053;-88
2021/08/17 01:38:11;;;;;;;1.50;0.40;;;;;;;12.41;100.00;100047.72;5043464;28;20521;-88
2021/08/17 01:40:44;;;;;;;1.90;0.50;;;;;;;12.42;100.00;100049.34;5048537;28;20041;-88
2021/08/17 01:43:19;;;;;;;0.77;0.30;;;;;;;12.39;100.00;100060.88;5050414;28;20405;-88
2021/08/17 01:45:54;;;;;;;2.22;0.60;;;;;;;12.40;100.00;100043.38;5050618;28;20049;-88
2021/08/17 01:48:30;;;;;;;0.88;0.40;;;;;;;12.44;100.00;100066.19;5046252;28;20049;-89
2021/08/17 01:50:59;;;;;;;2.40;0.47;;;;;;;12.27;100.00;100038.78;5031400;28;20053;-87
2021/08/17 01:53:34;;;;;;;3.35;0.50;;;;;;;12.34;100.00;100074.63;5046991;28;20393;-87
2021/08/17 01:56:09;;;;;;;1.88;0.60;;;;;;;12.36;100.00;100075.13;5051099;28;20045;-86
2021/08/17 01:58:44;;;;;;;1.33;0.50;;;;;;;12.44;100.00;100068.94;5041689;28;20056;-87
2021/08/17 02:01:17;;;;;;;2.10;0.60;;;;;;;12.44;100.00;100077.13;5034748;28;20049;-88
2021/08/17 02:03:59;;;;;;;0.82;0.40;;;;;;;12.38;100.00;100079.16;5050288;28;20052;-88
2021/08/17 02:06:32;;;;;;;1.13;0.47;;;;;;;12.34;100.00;100080.88;5056338;28;20370;-88
2021/08/17 02:09:01;;;;;;;1.08;0.38;;;;;;;12.31;100.00;100086.16;5054917;28;20056;-88
2021/08/17 02:11:34;;;;;;;1.25;0.47;;;;;;;12.38;100.00;100092.00;5040354;28;20058;-87
2021/08/17 02:14:04;;;;;;;2.75;0.55;;;;;;;12.37;100.00;100093.09;5054976;28;20068;-87
2021/08/17 02:16:41;;;;;;;0.88;0.35;;;;;;;12.45;100.00;100086.13;5050993;28;20076;-88
2021/08/17 02:19:16;;;;;;;0.95;0.45;;;;;;;12.29;100.00;100075.56;5034989;28;20041;-88
2021/08/17 02:21:49;;;;;;;1.73;0.50;;;;;;;12.34;100.00;100101.91;5039304;28;20060;-89
2021/08/17 02:24:22;;;;;;;1.20;0.40;;;;;;;12.31;100.00;100103.31;5054847;28;20044;-87
2021/08/17 02:26:54;;;;;;;1.40;0.65;;;;;;;12.15;100.00;100089.22;5047348;28;20058;-87
2021/08/17 02:29:29;;;;;;;0.57;0.30;;;;;;;12.29;100.00;100108.28;5033918;28;20049;-87
2021/08/17 02:32:04;;;;;;;0.88;0.40;;;;;;;12.19;100.00;100109.31;5040174;28;20053;-86
2021/08/17 02:34:39;;;;;;;0.95;0.40;;;;;;;12.07;100.00;100079.03;5050329;28;20044;-87
2021/08/17 02:37:07;;;;;;;1.17;0.50;;;;;;;11.99;100.00;100061.44;5054154;28;20069;-88
2021/08/17 02:39:41;;;;;;;1.13;0.50;;;;;;;12.22;100.00;100105.97;5054214;28;20049;-88
2021/08/17 02:42:14;;;;;;;1.52;0.50;;;;;;;12.21;100.00;100095.38;5049572;28;20449;-90
2021/08/17 02:44:49;;;;;;;3.00;0.60;;;;;;;12.19;100.00;100098.41;5045404;28;20056;-88
2021/08/17 02:47:22;;;;;;;1.58;0.50;;;;;;;12.30;100.00;100090.78;5043063;28;20049;-87
2021/08/17 02:49:55;;;;;;;1.70;0.50;;;;;;;12.33;100.00;100092.94;5050542;28;20042;-88
2021/08/17 02:52:51;;;;;;;1.88;0.60;;;;;;;12.23;100.00;100098.59;5053976;28;20504;-88
2021/08/17 02:55:25;;;;;;;1.00;0.40;;;;;;;12.29;100.00;100096.56;5049306;28;20072;-88
2021/08/17 02:57:55;;;;;;;1.98;0.50;;;;;;;12.18;100.00;100109.59;5048843;28;20059;-88
2021/08/17 03:00:25;;;;;;;2.28;0.60;;;;;;;12.16;100.00;100100.94;5040361;28;20072;-89
2021/08/17 03:02:53;;;;;;;0.98;0.32;;;;;;;11.98;100.00;100068.00;5039075;28;20056;-88
2021/08/17 03:05:48;;;;;;;1.98;0.60;;;;;;;12.13;100.00;100102.34;5049715;28;20045;-88
2021/08/17 03:08:21;;;;;;;0.77;0.45;;;;;;;12.08;100.00;100108.72;5033625;28;20052;-89
2021/08/17 03:10:49;;;;;;;1.58;0.57;;;;;;;12.14;100.00;100112.16;5036630;28;20053;-87
2021/08/17 03:13:27;;;;;;;0.82;0.50;;;;;;;12.14;100.00;100111.31;5042918;28;20536;-87
2021/08/17 03:16:01;;;;;;;1.88;0.43;;;;;;;12.21;100.00;100114.47;5035951;28;20049;-88
2021/08/17 03:18:29;;;;;;;3.22;0.55;;;;;;;12.18;100.00;100120.50;5043521;28;20068;-87
2021/08/17 03:21:03;;;;;;;2.17;0.50;;;;;;;12.29;100.00;100124.66;5052448;28;20061;-86
2021/08/17 03:23:36;;;;;;;1.40;0.45;;;;;;;12.21;100.00;100125.38;5050190;28;20771;-88
2021/08/17 03:26:04;;;;;;;0.95;0.45;;;;;;;12.27;100.00;100126.06;5044479;28;20049;-88
2021/08/17 03:28:32;;;;;;;1.88;0.50;;;;;;;12.21;100.00;100126.19;5063180;28;20060;-87
2021/08/17 03:31:02;;;;;;;1.25;0.40;;;;;;;12.19;100.00;100113.94;5035156;28;20057;-88
2021/08/17 03:34:13;;;;;;;2.13;0.52;;;;;;;12.24;100.00;100122.03;5047219;28;20049;-89
2021/08/17 03:36:46;;;;;;;1.63;0.60;;;;;;;12.19;100.00;100119.41;5045385;28;20421;-87
2021/08/17 03:39:15;;;;;;;2.05;0.63;;;;;;;12.35;100.00;100128.09;5052886;28;20056;-87
2021/08/17 03:41:48;;;;;;;1.20;0.50;;;;;;;12.28;100.00;100130.41;5052470;28;20049;-87
2021/08/17 03:44:21;;;;;;;1.15;0.50;;;;;;;12.35;100.00;100136.28;5049634;28;20057;-87
2021/08/17 03:47:06;;;;;;;0.88;0.43;;;;;;;12.28;100.00;100125.78;5042162;28;20127;-88
2021/08/17 03:49:39;;;;;;;1.63;0.50;;;;;;;12.23;100.00;100125.88;5047156;28;20045;-87
2021/08/17 03:52:30;;;;;;;2.15;0.60;;;;;;;12.19;100.00;100133.03;5033204;28;20049;-87
2021/08/17 03:55:50;;;;;;;0.90;0.50;;;;;;;12.18;100.00;100136.88;5035393;28;20044;-87
2021/08/17 03:58:23;;;;;;;1.52;0.30;;;;;;;12.18;100.00;100139.59;5050264;28;20051;-87
2021/08/17 04:00:56;;;;;;;0.63;0.43;;;;;;;12.02;100.00;100120.81;5044991;28;20037;-87
2021/08/17 04:03:31;;;;;;;2.10;0.60;;;;;;;12.04;100.00;100134.97;5046517;28;20046;-88
2021/08/17 04:05:59;;;;;;;1.00;0.50;;;;;;;12.17;100.00;100144.25;5034754;28;20057;-88
2021/08/17 04:08:32;;;;;;;2.58;0.50;;;;;;;12.15;100.00;100140.22;5052427;28;20504;-88
2021/08/17 04:11:06;;;;;;;1.75;0.63;;;;;;;12.06;100.00;100145.59;5059353;28;20056;-88
2021/08/17 04:13:40;;;;;;;1.60;0.60;;;;;;;12.08;100.00;100146.06;5054061;28;20041;-87
2021/08/17 04:16:13;;;;;;;1.63;0.50;;;;;;;11.97;100.00;100159.09;5050929;28;20053;-88
2021/08/17 04:18:48;;;;;;;1.63;0.60;;;;;;;12.07;100.00;100156.19;5041480;28;20060;-86
2021/08/17 04:21:16;;;;;;;1.25;0.40;;;;;;;12.03;100.00;100121.66;5043725;28;20087;-88
2021/08/17 04:23:59;;;;;;;0.40;0.40;;;;;;;11.98;100.00;100140.84;5034262;28;20044;-88
2021/08/17 04:26:32;;;;;;;1.63;0.63;;;;;;;12.03;100.00;100166.09;5032069;28;20041;-87
2021/08/17 04:29:05;;;;;;;3.03;0.57;;;;;;;11.96;100.00;100165.69;5043331;28;20041;-88
2021/08/17 04:31:38;;;;;;;0.60;0.40;;;;;;;12.06;100.00;100178.31;5051943;28;20045;-89
2021/08/17 04:34:13;;;;;;;1.63;0.68;;;;;;;12.14;100.00;100182.25;5036936;28;20060;-88
2021/08/17 04:36:47;;;;;;;1.25;0.50;;;;;;;12.22;100.00;100185.09;5045363;28;20529;-87
2021/08/17 04:43:12;;;;;;;0.82;0.35;;;;;;;11.99;100.00;100173.25;5051441;28;20477;-88
2021/08/17 04:45:45;;;;;;;2.33;0.63;;;;;;;12.21;99.16;100182.66;5038394;28;20045;-87
2021/08/17 04:48:13;;;;;;;2.25;0.50;;;;;;;12.17;99.98;100198.81;5049006;28;20505;-89
2021/08/17 04:50:48;;;;;;;1.58;0.57;;;;;;;12.21;98.10;100180.72;5051630;28;20060;-89
2021/08/17 04:53:16;;;;;;;0.70;0.43;;;;;;;12.16;99.57;100199.13;5051641;28;20057;-89
2021/08/17 04:55:50;;;;;;;1.25;0.50;;;;;;;12.10;100.00;100189.41;5051665;28;20052;-89
2021/08/17 04:58:23;;;;;;;0.75;0.50;;;;;;;11.99;100.00;100159.63;5037333;28;20060;-88
2021/08/17 05:00:56;;;;;;;1.70;0.70;;;;;;;12.25;100.00;100180.94;5053099;28;20044;-87
2021/08/17 05:03:30;;;;;;;2.03;0.50;;;;;;;12.07;99.99;100171.75;5044626;28;20080;-89
2021/08/17 05:05:59;;;;;;;1.23;0.40;;;;;;;12.32;100.00;100205.91;5051487;28;20498;-88
2021/08/17 05:08:33;;;;;;;1.70;0.57;;;;;;;12.36;100.00;100215.09;5051495;28;20423;-88
2021/08/17 05:11:11;;;;;;;0.90;0.50;;;;;;;12.44;99.11;100210.84;5052498;28;20040;-88
2021/08/17 05:13:39;;;;;;;1.90;0.70;;;;;;;12.37;99.14;100202.25;5052993;28;20053;-87
2021/08/17 05:16:12;;;;;;;1.67;0.50;;;;;;;12.63;98.24;100202.53;5052910;28;20048;-87
2021/08/17 05:18:45;;;;;;;0.88;0.40;;;;;;;12.66;98.83;100215.56;5053038;28;20049;-87
2021/08/17 05:21:22;;;;;;;1.42;0.50;;;;;;;12.70;98.78;100230.22;5050943;28;20048;-88
2021/08/17 05:23:50;;;;;;;1.63;0.50;;;;;;;12.71;99.32;100225.59;5046381;28;20049;-88
2021/08/17 05:26:18;;;;;;;2.45;0.55;;;;;;;12.81;99.68;100222.63;5039777;28;20050;-87
2021/08/17 05:28:51;;;;;;;2.00;0.60;;;;;;;12.95;99.16;100230.78;5045105;28;20405;-90
2021/08/17 05:31:19;;;;;;;1.63;0.50;;;;;;;12.75;98.82;100191.09;5041769;28;20049;-89
2021/08/17 05:33:53;;;;;;;0.98;0.50;;;;;;;12.81;99.29;100210.91;5048762;28;20060;-87
2021/08/17 05:36:22;;;;;;;1.30;0.43;;;;;;;12.95;100.00;100228.06;5044753;28;20060;-88
2021/08/17 05:38:50;;;;;;;1.05;0.50;;;;;;;13.10;99.77;100232.38;5051069;28;20048;-89
2021/08/17 05:41:49;;;;;;;1.23;0.50;;;;;;;13.12;100.00;100241.09;5045542;28;20500;-88
2021/08/17 05:44:22;;;;;;;1.23;0.50;;;;;;;13.14;100.00;100233.38;5048869;28;20049;-88
2021/08/17 05:46:51;;;;;;;2.08;0.60;;;;;;;13.30;100.00;100239.31;5051293;28;20056;-88
2021/08/17 05:49:28;;;;;;;2.28;0.70;;;;;;;13.28;99.75;100247.00;5049024;28;20084;-88
2021/08/17 05:52:03;;;;;;;1.58;0.50;;;;;;;13.26;99.48;100239.13;5051050;28;20053;-88
2021/08/17 05:54:37;;;;;;;2.35;0.65;;;;;;;13.21;100.00;100243.91;5051351;28;20045;-88
2021/08/17 05:57:10;;;;;;;2.75;0.82;;;;;;;13.23;100.00;100247.94;5046249;28;20060;-87
2021/08/17 05:59:43;;;;;;;0.98;0.70;;;;;;;13.37;100.00;100253.38;5044972;28;20046;-87
2021/08/17 06:02:11;;;;;;;1.95;0.60;;;;;;;13.37;99.92;100244.41;5046900;28;20064;-87
2021/08/17 06:04:45;;;;;;;1.77;0.60;;;;;;;13.56;99.86;100250.50;5047024;28;20049;-87
2021/08/17 06:07:19;;;;;;;1.08;0.57;;;;;;;13.40;100.00;100241.84;5043525;28;20053;-87
2021/08/17 06:09:52;;;;;;;1.60;0.70;;;;;;;13.47;99.95;100233.19;5049585;28;21677;-87
2021/08/17 06:12:26;;;;;;;1.55;0.65;;;;;;;13.85;98.91;100240.19;5043602;28;20038;-86
2021/08/17 06:14:59;;;;;;;1.80;0.60;;;;;;;13.88;98.53;100236.84;5040259;28;20052;-87
2021/08/17 06:18:02;;;;;;;1.70;0.60;;;;;;;13.98;98.41;100241.25;5050112;28;20049;-87
2021/08/17 06:20:36;;;;;;;2.25;0.60;;;;;;;13.97;99.21;100243.19;5042727;28;20132;-86
2021/08/17 06:23:39;;;;;;;1.33;0.60;;;;;;;13.97;99.38;100250.59;5040952;28;20053;-86
2021/08/17 06:26:44;;;;;;;1.65;0.60;;;;;;;13.86;99.65;100250.81;5043914;28;20056;-86
2021/08/17 06:29:18;;;;;;;1.40;0.60;;;;;;;13.73;100.00;100244.31;5044186;28;20041;-86
2021/08/17 06:31:52;;;;;;;1.48;0.57;;;;;;;13.55;100.00;100248.06;5039165;28;20053;-86
2021/08/17 06:34:26;;;;;;;1.33;0.60;;;;;;;13.69;100.00;100248.78;5043904;28;20512;-86
2021/08/17 06:36:59;;;;;;;3.65;0.70;;;;;;;13.64;100.00;100254.38;5039859;28;20505;-85
2021/08/17 06:39:34;;;;;;;2.38;0.70;;;;;;;13.44;100.00;100253.75;5049764;28;20563;-87
2021/08/17 06:42:08;;;;;;;0.98;0.70;;;;;;;13.50;100.00;100254.44;5034327;28;20405;-87
2021/08/17 06:44:38;;;;;;;2.28;0.75;;;;;;;13.44;100.00;100247.50;5036337;28;20068;-87
2021/08/17 06:47:11;;;;;;;2.25;0.80;;;;;;;13.51;100.00;100253.34;5033214;28;20053;-87
2021/08/17 06:49:44;;;;;;;2.22;0.70;;;;;;;13.71;100.00;100262.16;5032102;28;20068;-88
2021/08/17 06:52:17;;;;;;;2.10;0.70;;;;;;;13.81;100.00;100261.09;5032049;28;20041;-87
2021/08/17 06:54:47;;;;;;;3.25;0.80;;;;;;;13.72;100.00;100266.50;5038263;28;20063;-86
2021/08/17 06:57:15;;;;;;;3.03;0.65;;;;;;;13.73;100.00;100255.25;5034753;28;20049;-88
2021/08/17 06:59:48;;;;;;;3.92;0.80;;;;;;;13.85;100.00;100243.75;5035581;28;20565;-88
2021/08/17 07:02:21;;;;;;;1.83;0.70;;;;;;;14.17;100.00;100271.13;5031678;28;20053;-87
2021/08/17 07:04:55;;;;;;;1.42;0.80;;;;;;;14.22;100.00;100266.31;5030762;28;20049;-88
2021/08/17 07:07:23;;;;;;;1.48;0.68;;;;;;;14.52;99.45;100261.13;5031174;28;20056;-88
2021/08/17 07:09:58;;;;;;;1.95;0.60;;;;;;;14.46;97.40;100260.47;5037288;28;20626;-86
2021/08/17 07:12:27;;;;;;;2.38;0.93;;;;;;;14.63;98.58;100259.75;5035648;28;20671;-86
2021/08/17 07:14:55;;;;;;;3.92;0.68;;;;;;;14.59;99.00;100268.91;5034890;28;20053;-87
2021/08/17 07:17:41;;;;;;;2.78;0.70;;;;;;;14.59;98.29;100263.41;5031224;28;20425;-86
2021/08/17 07:20:14;;;;;;;1.58;0.60;;;;;;;14.91;96.67;100262.22;5034470;28;20061;-87
2021/08/17 07:22:51;;;;;;;1.67;0.70;;;;;;;15.05;99.69;100255.81;5034114;28;20477;-87
2021/08/17 07:25:25;;;;;;;1.75;0.55;;;;;;;14.82;95.09;100264.16;5034476;28;20045;-87
2021/08/17 07:27:54;;;;;;;2.13;0.70;;;;;;;14.80;98.14;100266.41;5034634;28;20535;-86
2021/08/17 07:30:22;;;;;;;1.27;0.57;;;;;;;14.82;98.43;100272.38;5032775;28;20052;-88
2021/08/17 07:32:51;;;;;;;0.95;0.50;;;;;;;14.95;96.99;100276.13;5031980;28;20386;-86
2021/08/17 07:35:20;;;;;;;1.58;0.60;;;;;;;14.93;97.47;100278.38;5029920;28;21311;-85
2021/08/17 07:37:52;;;;;;;2.22;0.60;;;;;;;14.65;98.09;100277.81;5037321;28;20053;-87
2021/08/17 07:40:21;;;;;;;2.15;0.70;;;;;;;14.55;97.06;100279.66;5033386;28;21343;-87
2021/08/17 07:43:00;;;;;;;1.77;0.60;;;;;;;14.50;98.22;100263.41;5030930;28;20060;-86
2021/08/17 07:45:34;;;;;;;0.68;0.47;;;;;;;14.68;97.19;100253.34;5032859;28;20413;-87
2021/08/17 07:48:02;;;;;;;1.65;0.50;;;;;;;14.72;98.02;100269.91;5047617;28;20068;-87
2021/08/17 07:50:39;;;;;;;1.67;0.50;;;;;;;14.68;97.34;100268.94;5032442;28;20053;-87
2021/08/17 07:53:13;;;;;;;1.83;0.60;;;;;;;14.96;96.99;100277.72;5033696;28;20048;-87
2021/08/17 07:55:46;;;;;;;1.15;0.50;;;;;;;14.94;97.18;100288.19;5034795;28;20057;-87
2021/08/17 07:58:16;;;;;;;2.08;0.70;;;;;;;14.90;97.75;100281.72;5035812;28;20064;-86
2021/08/17 08:00:44;;;;;;;0.88;0.70;;;;;;;15.04;98.49;100284.34;5030172;28;21312;-87
2021/08/17 08:03:12;;;;;;;2.10;0.70;;;;;;;14.84;98.63;100286.56;5030071;28;20540;-87
2021/08/17 08:05:41;;;;;;;2.70;0.70;;;;;;;14.96;95.01;100278.53;5030115;28;20060;-87
2021/08/17 08:08:14;;;;;;;0.73;0.40;;;;;;;14.96;95.93;100284.00;5031773;28;21322;-86
2021/08/17 08:10:47;;;;;;;1.05;0.50;;;;;;;15.03;94.82;100280.81;5031355;28;20498;-86
2021/08/17 08:13:22;;;;;;;0.88;0.60;;;;;;;15.16;97.16;100287.25;5028948;28;20049;-87
2021/08/17 08:15:55;;;;;;;1.95;0.80;;;;;;;15.10;97.17;100285.81;5032902;28;20061;-87
2021/08/17 08:18:57;;;;;;;1.48;0.43;;;;;;;15.16;95.28;100294.69;5032783;28;20068;-86
2021/08/17 08:21:32;;;;;;;0.73;0.50;;;;;;;14.99;96.13;100268.88;5029700;28;20061;-87
2021/08/17 08:24:05;;;;;;;0.50;0.50;;;;;;;15.05;95.67;100275.81;5032219;28;20064;-87
2021/08/17 08:26:39;;;;;;;0.90;0.50;;;;;;;14.91;97.23;100277.88;5032303;28;20698;-87
2021/08/17 08:29:08;;;;;;;1.23;0.55;;;;;;;14.98;95.63;100293.84;5031639;28;20065;-88
2021/08/17 08:31:42;;;;;;;0.88;0.63;;;;;;;14.74;99.19;100292.34;5032756;28;20072;-87
2021/08/17 08:34:15;;;;;;;2.67;0.63;;;;;;;14.55;98.58;100298.03;5028329;28;20049;-86
2021/08/17 08:36:54;;;;;;;0.52;0.43;;;;;;;14.53;100.00;100303.81;5028960;28;20060;-86
2021/08/17 08:39:22;;;;;;;1.23;0.60;;;;;;;14.16;99.92;100267.59;5027416;28;20059;-85
2021/08/17 08:41:55;;;;;;;1.77;0.50;;;;;;;14.19;100.00;100307.19;5029299;28;20445;-86
2021/08/17 08:44:30;;;;;;;0.57;0.50;;;;;;;14.03;100.00;100304.03;5029717;28;20076;-86
2021/08/17 08:47:04;;;;;;;0.75;0.50;;;;;;;14.07;100.00;100302.28;5040245;28;20489;-86
2021/08/17 08:49:33;;;;;;;1.30;0.52;;;;;;;14.13;100.00;100309.25;5033991;28;20060;-86
2021/08/17 08:52:08;;;;;;;1.08;0.50;;;;;;;14.20;100.00;100306.88;5030304;28;20056;-87
2021/08/17 08:54:41;;;;;;;1.23;0.57;;;;;;;14.16;100.00;100307.84;5027818;28;20060;-86
2021/08/17 08:57:11;;;;;;;1.38;0.40;;;;;;;14.06;100.00;100297.97;5032175;28;20068;-85
2021/08/17 08:59:46;;;;;;;2.05;0.57;;;;;;;14.18;100.00;100308.31;5029355;28;20060;-86
2021/08/17 09:02:19;;;;;;;0.68;0.50;;;;;;;13.94;100.00;100279.38;5029190;28;20051;-86
2021/08/17 09:04:59;;;;;;;1.38;0.50;;;;;;;13.86;100.00;100311.00;5030058;28;20064;-86
2021/08/17 09:07:36;;;;;;;1.05;0.52;;;;;;;14.07;100.00;100308.59;5028546;28;21324;-86
2021/08/17 09:10:07;;;;;;;1.70;0.60;;;;;;;14.07;100.00;100308.59;5030278;28;20679;-86
2021/08/17 09:12:44;;;;;;;0.95;0.50;;;;;;;13.97;100.00;100317.03;5027108;28;20053;-86
2021/08/17 09:15:16;;;;;;;1.33;0.60;;;;;;;13.98;100.00;100315.13;5031962;28;20377;-86
2021/08/17 09:18:13;;;;;;;0.68;0.43;;;;;;;14.01;100.00;100317.22;5029942;28;20049;-86
2021/08/17 09:20:48;;;;;;;1.63;0.47;;;;;;;14.03;100.00;100318.53;5028206;28;20068;-86
2021/08/17 09:23:27;;;;;;;0.50;0.50;;;;;;;13.88;100.00;100325.19;5031751;28;20053;-87
2021/08/17 09:26:02;;;;;;;0.45;0.40;;;;;;;13.82;100.00;100318.22;5030522;28;20056;-85
2021/08/17 09:28:32;;;;;;;0.85;0.50;;;;;;;13.93;100.00;100329.72;5031596;28;20057;-85
2021/08/17 09:31:32;;;;;;;1.50;0.50;;;;;;;14.24;100.00;100337.19;5032149;28;20398;-85
2021/08/17 09:34:01;;;;;;;0.40;0.40;;;;;;;13.94;100.00;100323.94;5035183;28;20501;-85
2021/08/17 09:36:39;;;;;;;0.75;0.40;;;;;;;13.97;100.00;100341.66;5028370;28;20052;-83
2021/08/17 09:39:27;;;;;;;0.85;0.57;;;;;;;13.73;100.00;100333.78;5026693;28;21516;-85
2021/08/17 09:42:09;;;;;;;0.40;0.40;;;;;;;13.69;100.00;100327.31;5026904;28;20454;-84
2021/08/17 09:44:45;;;;;;;0.35;0.35;;;;;;;13.54;100.00;100334.72;5029973;28;20049;-85
2021/08/17 09:47:26;;;;;;;0.80;0.50;;;;;;;13.46;100.00;100342.84;5026456;28;20045;-85
2021/08/17 09:49:55;;;;;;;0.90;0.45;;;;;;;13.52;100.00;100339.72;5030519;28;20064;-85
2021/08/17 09:52:34;;;;;;;1.00;0.45;;;;;;;13.08;100.00;100309.19;5032528;28;21372;-85
2021/08/17 09:55:15;;;;;;;1.23;0.63;;;;;;;13.24;100.00;100334.28;5029282;28;21392;-85
2021/08/17 09:57:49;;;;;;;1.13;0.50;;;;;;;13.26;100.00;100337.50;5031117;28;20056;-86
2021/08/17 10:00:25;;;;;;;0.70;0.40;;;;;;;13.34;100.00;100348.81;5030087;28;20107;-85
2021/08/17 10:05:48;;;;;;;0.73;0.40;;;;;;;13.37;100.00;100338.13;5019451;28;20053;-86
2021/08/17 10:08:26;;;;;;;1.05;0.60;;;;;;;13.40;100.00;100336.69;5023141;28;20054;-86
2021/08/17 10:11:00;;;;;;;0.47;0.40;;;;;;;13.54;100.00;100339.41;5024543;28;20505;-86
2021/08/17 10:13:37;;;;;;;0.40;0.40;;;;;;;13.87;100.00;100348.19;5026729;28;20788;-87
2021/08/17 10:16:10;;;;;;;0.98;0.70;;;;;;;13.83;100.00;100349.94;5022913;28;20615;-88
2021/08/17 10:18:45;;;;;;;0.40;0.40;;;;;;;13.93;100.00;100343.41;5025472;28;20045;-86
2021/08/17 10:21:20;;;;;;;0.57;0.40;;;;;;;13.83;100.00;100349.13;5026364;28;20417;-87
2021/08/17 10:23:54;;;;;;;0.85;0.50;;;;;;;13.64;100.00;100335.63;5026465;28;20061;-86
2021/08/17 10:26:29;;;;;;;0.68;0.40;;;;;;;13.52;100.00;100352.53;5026467;28;20520;-87
2021/08/17 10:29:29;;;;;;;0.50;0.40;;;;;;;13.56;100.00;100348.09;5023927;28;20163;-88
2021/08/17 10:32:36;;;;;;;1.35;0.40;;;;;;;13.63;100.00;100351.22;5031266;28;21330;-86
2021/08/17 10:35:33;;;;;;;0.55;0.40;;;;;;;13.56;100.00;100357.09;5026876;28;20061;-85
2021/08/17 10:38:37;;;;;;;0.93;0.50;;;;;;;13.57;100.00;100361.44;5032665;28;21558;-86
2021/08/17 10:41:07;;;;;;;1.15;0.47;;;;;;;13.47;100.00;100358.16;5022290;28;20663;-85
2021/08/17 10:44:16;;;;;;;0.40;0.40;;;;;;;13.42;100.00;100369.97;5024550;28;20694;-86
2021/08/17 10:47:29;;;;;;;0.63;0.40;;;;;;;13.46;100.00;100364.72;5021309;28;20057;-85
2021/08/17 10:50:03;;;;;;;0.98;0.60;;;;;;;13.33;100.00;100341.75;5032786;28;20049;-83
2021/08/17 10:52:42;;;;;;;0.73;0.50;;;;;;;13.25;100.00;100348.72;5028504;28;20707;-85
2021/08/17 10:55:42;;;;;;;0.77;0.60;;;;;;;13.32;100.00;100373.72;5034514;28;20045;-84
2021/08/17 10:58:15;;;;;;;1.70;0.52;;;;;;;13.19;100.00;100369.91;5022573;28;20057;-85
2021/08/17 11:00:56;;;;;;;1.85;0.80;;;;;;;13.05;100.00;100360.88;5026889;28;20055;-83
2021/08/17 11:03:48;;;;;;;1.50;0.65;;;;;;;13.07;100.00;100358.66;5029341;28;20053;-84
2021/08/17 11:06:39;;;;;;;;;;;;;;;13.04;100.00;100348.34;5024183;28;20045;-85
2021/08/17 11:09:10;;;;;;;2.03;0.60;;;;;;;12.89;100.00;100344.00;5023354;28;19929;-84
2021/08/17 11:11:39;;;;;;;2.88;0.75;;;;;;;12.73;100.00;100324.38;5028666;28;20416;-86
2021/08/17 11:14:14;;;;;;;3.25;0.82;;;;;;;12.86;100.00;100355.53;5024169;28;20149;-84
2021/08/17 11:16:45;;;;;;;1.98;0.70;;;;;;;12.87;100.00;100371.63;5022787;28;20592;-82
2021/08/17 11:19:14;;;;;;;0.77;0.52;;;;;;;12.86;100.00;100372.72;5026760;28;20056;-83
2021/08/17 11:21:50;;;;;;;0.50;0.50;;;;;;;13.02;100.00;100369.69;5021525;28;20049;-84
2021/08/17 11:24:29;;;;;;;1.25;0.50;;;;;;;12.87;100.00;100379.81;5023969;28;20162;-90
2021/08/17 11:27:00;;;;;;;1.13;0.60;;;;;;;12.83;100.00;100386.16;5018496;28;20057;-83
2021/08/17 11:29:39;;;;;;;1.27;0.70;;;;;;;12.75;100.00;100366.66;5024834;28;20494;-83
2021/08/17 11:32:25;;;;;;;1.40;0.63;;;;;;;12.83;100.00;100387.00;5031426;28;20049;-86
2021/08/17 11:35:51;;;;;;;1.58;0.63;;;;;;;12.88;100.00;100378.69;5025738;28;20041;-85
2021/08/17 11:38:24;;;;;;;1.67;0.77;;;;;;;12.91;100.00;100382.72;5028511;28;20071;-85
2021/08/17 11:41:03;;;;;;;3.13;0.80;;;;;;;12.89;100.00;100398.63;5023280;28;20051;-85
2021/08/17 11:43:36;;;;;;;1.00;0.60;;;;;;;12.86;100.00;100401.97;5021515;28;20439;-86
2021/08/17 11:46:23;;;;;;;0.98;0.52;;;;;;;12.93;100.00;100408.63;5030335;28;20059;-85
2021/08/17 11:49:19;;;;;;;1.38;0.60;;;;;;;12.97;100.00;100405.28;5026325;28;20056;-84
2021/08/17 11:52:04;;;;;;;0.80;0.50;;;;;;;12.98;100.00;100404.19;5028868;28;20049;-84
2021/08/17 11:54:33;;;;;;;2.00;0.80;;;;;;;13.03;100.00;100409.56;5024014;28;20061;-84
2021/08/17 11:57:08;;;;;;;1.50;0.70;;;;;;;13.01;100.00;100415.34;5018912;28;20056;-83
2021/08/17 11:59:43;;;;;;;1.77;1.00;;;;;;;13.08;100.00;100406.75;5024750;28;20060;-83
2021/08/17 12:02:23;;;;;;;2.55;0.70;;;;;;;13.17;100.00;100409.56;5026437;28;20053;-84
2021/08/17 12:04:59;;;;;;;1.63;0.60;;;;;;;13.22;100.00;100407.53;5021886;28;20509;-84
2021/08/17 12:07:33;;;;;;;2.45;0.88;;;;;;;13.13;100.00;100401.16;5022326;28;21315;-84
2021/08/17 12:10:10;;;;;;;3.70;0.77;;;;;;;13.18;100.00;100403.78;5019944;28;20080;-83
2021/08/17 12:13:00;;;;;;;1.92;0.80;;;;;;;13.18;100.00;100416.66;5026391;28;20064;-83
2021/08/17 12:15:44;;;;;;;3.55;0.80;;;;;;;13.17;100.00;100399.44;5022860;28;20529;-85